Kitanomaru — JD2835 — position and weather

sailwx.info

Track history (hours):
 
Tides and Currents Weather Stations Pressure Air Temp Water Temp Dewpoint Dewpoint Depression Visibility Wind Speed Wind Dir Waves Ship Positions

Kitanomaru

Last reported at 2017-Sep-21 10:14 UTC. Time now 2017-Sep-23 14:37 UTC.
Position N 35°29' E 139°58'.

Length 39 m; draft 4 m.

Type: Tug. MMSI: 431000773.

Date/timePositionNaut miles runAvg speedWind from/ knotsBaromVisibWave heightAir tempDewpointWater temp
2017-Sep-21 10:14N 35°29' E 139°58'0 0.3
2017-Sep-21 09:04N 35°28' E 139°58'1 6.9
2017-Sep-21 08:59N 35°29' E 139°57'0 0.4
2017-Sep-21 08:31N 35°29' E 139°57'0 0.0
2017-Sep-21 07:57N 35°29' E 139°57'0 0.0
2017-Sep-21 07:30N 35°29' E 139°57'2 3.2
2017-Sep-21 07:00N 35°30' E 139°56'1 1.3
2017-Sep-21 06:31N 35°31' E 139°56'0 0.0
2017-Sep-21 06:01N 35°31' E 139°56'0 0.1
2017-Sep-21 05:29N 35°31' E 139°56'0 0.3
2017-Sep-21 04:55N 35°31' E 139°56'0 0.5
2017-Sep-21 04:30N 35°31' E 139°56'2 3.1
2017-Sep-21 03:59N 35°30' E 139°54'1 0.3
2017-Sep-21 00:39N 35°29' E 139°54'5 0.1
2017-Sep-19 01:36N 35°29' E 140°00'  
2017-Sep-16 03:02N 35°31' E 139°56'0 0.7
2017-Sep-16 03:01N 35°31' E 139°56'0 0.0
2017-Sep-16 02:23N 35°31' E 139°56'0 0.1
2017-Sep-16 02:00N 35°31' E 139°56'0 0.8
2017-Sep-16 01:31N 35°31' E 139°56'2 3.7
2017-Sep-16 00:56N 35°30' E 139°53'3 3.9
2017-Sep-16 00:13N 35°31' E 139°57'2 0.1
2017-Sep-15 05:33N 35°29' E 139°58'1 9.0
2017-Sep-15 05:29N 35°29' E 139°57'2 3.4
2017-Sep-15 05:00N 35°31' E 139°56'0 0.0
2017-Sep-15 04:30N 35°31' E 139°56'1 1.9
2017-Sep-15 03:57N 35°32' E 139°57'3 0.1
2017-Sep-14 06:51N 35°29' E 139°58'1 0.9
2017-Sep-14 05:23N 35°29' E 139°57'0 0.1
2017-Sep-14 03:39N 35°29' E 139°57'1 9.2
2017-Sep-14 03:30N 35°31' E 139°56'3 1.1
2017-Sep-14 01:03N 35°29' E 139°54'1 4.4
2017-Sep-14 00:53N 35°29' E 139°53'1 1.8
2017-Sep-14 00:28N 35°29' E 139°54'3 0.1
2017-Sep-13 04:22N 35°31' E 139°56'0 0.2
2017-Sep-13 04:01N 35°31' E 139°56'0 0.1
2017-Sep-13 02:59N 35°31' E 139°56'1 1.7
2017-Sep-13 02:26N 35°30' E 139°55'2 4.4
2017-Sep-13 01:57N 35°29' E 139°53'1 2.6
2017-Sep-13 01:28N 35°30' E 139°54'6 0.2
2017-Sep-11 23:34N 35°30' E 140°02'0 2.0
2017-Sep-11 23:21N 35°30' E 140°01'1 1.4
2017-Sep-11 22:58N 35°30' E 140°00'  
Track history (hours):
 
Tides and Currents Weather Stations Pressure Air Temp Water Temp Dewpoint Dewpoint Depression Visibility Wind Speed Wind Dir Waves Ship Positions

Kitanomaru

Last reported at 2017-Sep-21 10:14 UTC. Time now 2017-Sep-23 14:37 UTC.
Position N 35°29' E 139°58'.

Length 39 m; draft 4 m.

Type: Tug. MMSI: 431000773.

Date/timePositionNaut miles runAvg speedWind from/ knotsBaromVisibWave heightAir tempDewpointWater temp
2017-Sep-21 10:14N 35°29' E 139°58'0 0.3
2017-Sep-21 09:04N 35°28' E 139°58'1 6.9
2017-Sep-21 08:59N 35°29' E 139°57'0 0.4
2017-Sep-21 08:31N 35°29' E 139°57'0 0.0
2017-Sep-21 07:57N 35°29' E 139°57'0 0.0
2017-Sep-21 07:30N 35°29' E 139°57'2 3.2
2017-Sep-21 07:00N 35°30' E 139°56'1 1.3
2017-Sep-21 06:31N 35°31' E 139°56'0 0.0
2017-Sep-21 06:01N 35°31' E 139°56'0 0.1
2017-Sep-21 05:29N 35°31' E 139°56'0 0.3
2017-Sep-21 04:55N 35°31' E 139°56'0 0.5
2017-Sep-21 04:30N 35°31' E 139°56'2 3.1
2017-Sep-21 03:59N 35°30' E 139°54'1 0.3
2017-Sep-21 00:39N 35°29' E 139°54'5 0.1
2017-Sep-19 01:36N 35°29' E 140°00'  
2017-Sep-16 03:02N 35°31' E 139°56'0 0.7
2017-Sep-16 03:01N 35°31' E 139°56'0 0.0
2017-Sep-16 02:23N 35°31' E 139°56'0 0.1
2017-Sep-16 02:00N 35°31' E 139°56'0 0.8
2017-Sep-16 01:31N 35°31' E 139°56'2 3.7
2017-Sep-16 00:56N 35°30' E 139°53'3 3.9
2017-Sep-16 00:13N 35°31' E 139°57'2 0.1
2017-Sep-15 05:33N 35°29' E 139°58'1 9.0
2017-Sep-15 05:29N 35°29' E 139°57'2 3.4
2017-Sep-15 05:00N 35°31' E 139°56'0 0.0
2017-Sep-15 04:30N 35°31' E 139°56'1 1.9
2017-Sep-15 03:57N 35°32' E 139°57'3 0.1
2017-Sep-14 06:51N 35°29' E 139°58'1 0.9
2017-Sep-14 05:23N 35°29' E 139°57'0 0.1
2017-Sep-14 03:39N 35°29' E 139°57'1 9.2
2017-Sep-14 03:30N 35°31' E 139°56'3 1.1
2017-Sep-14 01:03N 35°29' E 139°54'1 4.4
2017-Sep-14 00:53N 35°29' E 139°53'1 1.8
2017-Sep-14 00:28N 35°29' E 139°54'3 0.1
2017-Sep-13 04:22N 35°31' E 139°56'0 0.2
2017-Sep-13 04:01N 35°31' E 139°56'0 0.1
2017-Sep-13 02:59N 35°31' E 139°56'1 1.7
2017-Sep-13 02:26N 35°30' E 139°55'2 4.4
2017-Sep-13 01:57N 35°29' E 139°53'1 2.6
2017-Sep-13 01:28N 35°30' E 139°54'6 0.2
2017-Sep-11 23:34N 35°30' E 140°02'0 2.0
2017-Sep-11 23:21N 35°30' E 140°01'1 1.4
2017-Sep-11 22:58N 35°30' E 140°00'  

Dump ship's entire track history